createdAt,value
2022-12-19T00:03:14.664Z,36.20
2022-12-19T00:06:43.932Z,39.50
2022-12-19T00:10:12.168Z,38.20
2022-12-19T00:13:40.806Z,36.80
2022-12-19T00:17:08.006Z,37.80
2022-12-19T00:20:35.595Z,36.20
2022-12-19T00:24:03.492Z,38.30
2022-12-19T00:27:38.032Z,41.10
2022-12-19T00:31:06.520Z,44.90
2022-12-19T00:34:33.307Z,44.10
2022-12-19T00:38:03.201Z,44.50
2022-12-19T00:41:32.018Z,41.20
2022-12-19T00:44:59.834Z,39.80
2022-12-19T00:48:26.577Z,41.70
2022-12-19T00:51:53.057Z,39.10
2022-12-19T00:55:19.750Z,37.60
2022-12-19T00:58:47.512Z,34.40
2022-12-19T01:02:14.941Z,34.00
2022-12-19T01:05:42.131Z,32.90
2022-12-19T01:09:09.559Z,32.40
2022-12-19T01:12:48.441Z,32.50
2022-12-19T01:16:16.271Z,30.70
2022-12-19T01:19:44.955Z,30.40
2022-12-19T01:23:12.355Z,28.70
2022-12-19T01:26:38.878Z,29.90
2022-12-19T01:30:08.515Z,29.40
2022-12-19T01:33:37.350Z,28.80
2022-12-19T01:37:05.479Z,28.40
2022-12-19T01:40:59.386Z,27.40
2022-12-19T01:44:29.145Z,28.50
2022-12-19T01:48:02.745Z,24.30
2022-12-19T01:55:02.827Z,25.20
2022-12-19T01:58:32.341Z,26.40
2022-12-19T02:02:06.413Z,25.40
2022-12-19T02:08:59.902Z,24.40
2022-12-19T02:12:28.086Z,24.10
2022-12-19T02:16:00.899Z,24.30
2022-12-19T02:19:54.265Z,24.00
2022-12-19T02:24:03.185Z,24.90
2022-12-19T02:27:58.313Z,25.90
2022-12-19T02:31:31.187Z,25.70
2022-12-19T02:35:04.014Z,27.70
2022-12-19T02:38:36.413Z,20.50
2022-12-19T02:42:07.571Z,27.10
2022-12-19T02:45:39.210Z,25.40
2022-12-19T02:49:09.121Z,25.40
2022-12-19T02:52:56.339Z,28.30
2022-12-19T02:56:37.113Z,26.70
2022-12-19T03:00:08.517Z,26.60
2022-12-19T03:03:46.900Z,26.10
2022-12-19T03:07:24.179Z,28.40
2022-12-19T03:10:59.467Z,27.20
2022-12-19T03:14:28.085Z,26.40
2022-12-19T03:17:57.728Z,27.60
2022-12-19T03:21:30.645Z,26.60
2022-12-19T03:24:57.518Z,28.10
2022-12-19T03:28:32.435Z,27.20
2022-12-19T03:32:01.495Z,27.60
2022-12-19T03:35:30.693Z,27.00
2022-12-19T03:38:58.524Z,26.20
2022-12-19T03:42:45.645Z,27.30
2022-12-19T03:46:19.259Z,24.90
2022-12-19T03:49:46.846Z,25.20
2022-12-19T03:53:27.347Z,26.50
2022-12-19T03:57:01.842Z,26.10
2022-12-19T04:00:30.076Z,25.70
2022-12-19T04:04:07.646Z,27.10
2022-12-19T04:07:36.299Z,25.60
2022-12-19T04:11:09.624Z,26.70
2022-12-19T04:14:39.019Z,27.60
2022-12-19T04:18:12.180Z,27.60
2022-12-19T04:21:44.391Z,27.70
2022-12-19T04:25:24.007Z,28.50
2022-12-19T04:28:59.243Z,30.20
2022-12-19T04:32:28.752Z,27.60
2022-12-19T04:35:56.127Z,27.30
2022-12-19T04:39:23.056Z,35.10
2022-12-19T04:42:51.507Z,32.50
2022-12-19T04:46:18.165Z,29.40
2022-12-19T04:49:44.709Z,27.70
2022-12-19T04:53:12.873Z,26.90
2022-12-19T04:56:39.735Z,26.80
2022-12-19T05:00:08.894Z,26.30
2022-12-19T05:03:36.788Z,29.60
2022-12-19T05:07:03.788Z,27.50
2022-12-19T05:10:31.233Z,27.30
2022-12-19T05:13:57.413Z,28.40
2022-12-19T05:17:23.627Z,29.10
2022-12-19T05:20:53.312Z,30.00
2022-12-19T05:24:19.757Z,30.90
2022-12-19T05:27:46.109Z,29.60
2022-12-19T05:31:14.880Z,29.20
2022-12-19T05:34:41.538Z,27.00
2022-12-19T05:38:08.510Z,25.50
2022-12-19T05:41:35.330Z,27.10
2022-12-19T05:45:01.806Z,25.00
2022-12-19T05:48:28.108Z,26.90
2022-12-19T05:51:57.467Z,29.00
2022-12-19T05:59:15.438Z,28.00
2022-12-19T06:02:42.189Z,28.10
2022-12-19T06:06:11.925Z,26.80
2022-12-19T06:09:38.716Z,26.10
2022-12-19T06:13:07.706Z,26.90
2022-12-19T06:16:35.966Z,25.20
2022-12-19T06:20:03.461Z,27.00
2022-12-19T06:23:33.462Z,26.60
2022-12-19T06:26:59.786Z,25.80
2022-12-19T06:30:28.917Z,26.20
2022-12-19T06:33:55.940Z,25.70
2022-12-19T06:37:23.836Z,24.00
2022-12-19T06:41:08.077Z,25.80
2022-12-19T06:44:38.516Z,25.00
2022-12-19T06:48:04.919Z,22.60
2022-12-19T06:51:33.490Z,58.20
2022-12-19T06:54:59.904Z,159.50
2022-12-19T06:58:26.765Z,101.00
2022-12-19T07:02:01.929Z,52.20
2022-12-19T07:05:30.047Z,97.80
2022-12-19T07:09:01.740Z,37.30
2022-12-19T07:12:31.688Z,30.50
2022-12-19T07:16:03.588Z,29.10
2022-12-19T07:19:32.187Z,33.70
2022-12-19T07:23:00.215Z,25.50
2022-12-19T07:26:28.815Z,38.30
2022-12-19T07:29:58.399Z,46.80
2022-12-19T07:33:25.127Z,44.50
2022-12-19T07:36:52.246Z,40.90
2022-12-19T07:40:19.076Z,29.70
2022-12-19T07:43:51.095Z,27.80
2022-12-19T07:47:17.865Z,25.80
2022-12-19T07:50:46.398Z,22.90
2022-12-19T07:54:13.512Z,41.50
2022-12-19T07:57:43.147Z,26.00
2022-12-19T08:01:15.388Z,30.40
2022-12-19T08:04:43.100Z,25.20
2022-12-19T08:08:12.354Z,28.60
2022-12-19T08:11:39.586Z,26.30
2022-12-19T08:15:07.771Z,25.50
2022-12-19T08:18:35.305Z,27.40
2022-12-19T08:22:02.473Z,37.20
2022-12-19T08:25:29.482Z,31.40
2022-12-19T08:28:56.884Z,30.40
2022-12-19T08:32:23.745Z,24.30
2022-12-19T08:35:50.890Z,27.10
2022-12-19T08:39:17.628Z,29.90
2022-12-19T08:42:45.101Z,40.70
2022-12-19T08:46:12.935Z,30.00
2022-12-19T08:49:39.809Z,25.80
2022-12-19T08:53:05.982Z,38.80
2022-12-19T08:56:32.816Z,27.90
2022-12-19T08:59:59.619Z,34.40
2022-12-19T09:03:34.081Z,27.10
2022-12-19T09:07:10.771Z,23.00
2022-12-19T09:10:38.945Z,30.70
2022-12-19T09:14:06.433Z,29.40
2022-12-19T09:17:33.170Z,24.30
2022-12-19T09:21:00.207Z,36.40
2022-12-19T09:24:28.260Z,26.30
2022-12-19T09:28:26.407Z,25.00
2022-12-19T09:31:41.912Z,27.90
2022-12-19T09:35:10.733Z,27.10
2022-12-19T09:38:40.585Z,26.40
2022-12-19T09:42:32.342Z,35.20
2022-12-19T09:46:17.826Z,30.20
2022-12-19T09:49:46.609Z,26.50
2022-12-19T09:53:21.348Z,28.30
2022-12-19T09:56:54.308Z,27.60
2022-12-19T10:00:23.032Z,28.10
2022-12-19T10:04:01.810Z,32.70
2022-12-19T10:08:01.317Z,28.50
2022-12-19T10:12:45.819Z,26.70
2022-12-19T10:15:33.374Z,29.00
2022-12-19T10:19:03.091Z,30.40
2022-12-19T10:22:46.572Z,30.20
2022-12-19T10:26:22.200Z,28.80
2022-12-19T10:30:14.216Z,31.70
2022-12-19T10:33:47.490Z,27.50
2022-12-19T10:37:28.874Z,32.50
2022-12-19T10:41:16.601Z,31.50
2022-12-19T10:44:48.010Z,29.60
2022-12-19T10:48:24.740Z,29.10
2022-12-19T10:52:01.544Z,30.20
2022-12-19T10:55:39.039Z,31.80
2022-12-19T10:59:16.558Z,40.70
2022-12-19T11:02:47.876Z,33.00
2022-12-19T11:06:48.280Z,32.80
2022-12-19T11:12:36.505Z,31.50
2022-12-19T11:18:27.409Z,32.40
2022-12-19T11:29:16.862Z,33.50
2022-12-19T11:29:30.942Z,31.90
2022-12-19T11:30:45.510Z,31.10
2022-12-19T11:33:56.560Z,36.20
2022-12-19T11:37:31.761Z,35.10
2022-12-19T11:41:04.219Z,33.60
2022-12-19T11:44:35.872Z,31.70
2022-12-19T11:48:11.677Z,33.70
2022-12-19T11:51:47.283Z,31.80
2022-12-19T11:55:24.089Z,35.30
2022-12-19T11:58:54.828Z,36.00
2022-12-19T12:02:57.803Z,35.20
2022-12-19T12:06:31.239Z,43.60
2022-12-19T12:16:45.777Z,51.90
2022-12-19T12:21:57.684Z,35.60
2022-12-19T12:31:09.282Z,35.80
2022-12-19T12:31:21.757Z,35.80
2022-12-19T12:31:40.354Z,35.60
2022-12-19T12:31:47.569Z,37.30
2022-12-19T12:35:28.679Z,53.00
2022-12-19T12:38:23.548Z,39.20
2022-12-19T12:42:05.480Z,33.50
2022-12-19T12:45:37.346Z,35.80
2022-12-19T12:49:07.090Z,35.10
2022-12-19T12:52:38.615Z,35.20
2022-12-19T12:56:08.059Z,35.70
2022-12-19T12:59:34.965Z,35.40
2022-12-19T13:03:07.906Z,34.90
2022-12-19T13:10:20.292Z,34.50
2022-12-19T13:13:58.430Z,34.80
2022-12-19T13:18:10.619Z,34.70
2022-12-19T13:22:13.001Z,38.20
2022-12-19T13:25:55.267Z,35.10
2022-12-19T13:29:57.753Z,34.90
2022-12-19T13:33:24.342Z,38.70
2022-12-19T13:39:50.420Z,37.80
2022-12-19T13:40:58.741Z,35.30
2022-12-19T13:44:25.597Z,52.60
2022-12-19T13:47:54.866Z,34.70
2022-12-19T13:51:21.626Z,39.00
2022-12-19T13:54:52.364Z,38.10
2022-12-19T13:58:29.056Z,37.40
2022-12-19T14:02:07.982Z,35.30
2022-12-19T14:06:16.374Z,32.50
2022-12-19T14:11:27.621Z,33.80
2022-12-19T14:14:01.100Z,34.10
2022-12-19T14:17:32.565Z,33.30
2022-12-19T14:22:05.172Z,33.60
2022-12-19T14:28:15.247Z,35.70
2022-12-19T14:29:02.204Z,36.60
2022-12-19T14:33:47.020Z,34.00
2022-12-19T14:36:26.003Z,33.00
2022-12-19T14:39:59.600Z,36.80
2022-12-19T14:44:00.310Z,31.90
2022-12-19T14:54:03.654Z,33.10
2022-12-19T14:54:29.349Z,36.40
2022-12-19T14:56:16.239Z,32.80
2022-12-19T14:59:35.641Z,40.30
2022-12-19T15:03:13.974Z,37.40
2022-12-19T15:07:08.952Z,39.60
2022-12-19T15:11:10.835Z,37.00
2022-12-19T15:14:56.976Z,41.30
2022-12-19T15:18:26.733Z,50.20
2022-12-19T15:21:53.760Z,42.00
2022-12-19T15:26:01.506Z,61.10
2022-12-19T15:29:19.828Z,51.50
2022-12-19T15:32:50.944Z,55.70
2022-12-19T15:36:17.318Z,51.40
2022-12-19T15:39:45.161Z,54.30
2022-12-19T15:43:53.183Z,55.70
2022-12-19T15:47:06.688Z,54.70
2022-12-19T15:50:34.236Z,49.60
2022-12-19T15:54:38.185Z,70.20
2022-12-19T15:57:52.768Z,55.40
2022-12-19T16:01:19.793Z,42.70
2022-12-19T16:04:48.532Z,44.50
2022-12-19T16:08:17.434Z,38.90
2022-12-19T16:11:47.217Z,44.40
2022-12-19T16:15:25.229Z,42.10
2022-12-19T16:18:51.871Z,43.00
2022-12-19T16:22:24.279Z,46.40
2022-12-19T16:25:53.557Z,38.90
2022-12-19T16:29:24.517Z,36.10
2022-12-19T16:32:52.833Z,35.00
2022-12-19T16:36:19.748Z,61.10
2022-12-19T16:39:47.912Z,40.90
2022-12-19T16:43:25.670Z,38.50
2022-12-19T16:46:56.826Z,37.60
2022-12-19T16:50:29.003Z,40.20
2022-12-19T16:54:00.789Z,42.00
2022-12-19T16:57:27.411Z,45.40
2022-12-19T17:00:56.621Z,48.70
2022-12-19T17:04:26.539Z,50.90
2022-12-19T17:07:54.387Z,50.40
2022-12-19T17:11:26.193Z,42.10
2022-12-19T17:14:52.839Z,43.70
2022-12-19T17:18:27.017Z,40.40
2022-12-19T17:21:55.065Z,41.70
2022-12-19T17:25:27.868Z,43.00
2022-12-19T17:32:24.535Z,43.60
2022-12-19T17:35:52.056Z,38.90
2022-12-19T17:39:23.947Z,40.10
2022-12-19T17:42:51.565Z,39.10
2022-12-19T17:46:23.344Z,39.60
2022-12-19T17:49:51.131Z,39.00
2022-12-19T17:53:17.625Z,44.90
2022-12-19T17:56:46.699Z,46.30
2022-12-19T18:00:15.699Z,45.60
2022-12-19T18:03:42.558Z,40.60
2022-12-19T18:07:16.058Z,43.20
2022-12-19T18:10:43.104Z,44.00
2022-12-19T18:14:10.205Z,56.10
2022-12-19T18:17:39.410Z,63.70
2022-12-19T18:21:07.987Z,62.00
2022-12-19T18:24:34.648Z,65.20
2022-12-19T18:28:01.900Z,59.10
2022-12-19T18:31:34.482Z,52.80
2022-12-19T18:35:05.598Z,55.40
2022-12-19T18:38:36.128Z,52.00
2022-12-19T18:42:03.392Z,55.70
2022-12-19T18:45:36.963Z,55.50
2022-12-19T18:49:05.410Z,50.90
2022-12-19T18:52:33.379Z,51.40
2022-12-19T18:56:00.479Z,59.60
2022-12-19T18:59:29.130Z,60.90
2022-12-19T19:03:03.169Z,66.70
2022-12-19T19:06:37.827Z,71.10
2022-12-19T19:10:19.870Z,62.00
2022-12-19T19:13:57.889Z,44.40
2022-12-19T19:17:32.141Z,48.60
2022-12-19T19:21:01.491Z,46.80
2022-12-19T19:24:31.202Z,47.00
2022-12-19T19:28:04.441Z,48.40
2022-12-19T19:35:11.128Z,43.90
2022-12-19T19:40:31.914Z,47.30
2022-12-19T19:44:03.077Z,46.90
2022-12-19T19:47:36.490Z,45.90
2022-12-19T19:51:10.319Z,47.20
2022-12-19T19:54:39.073Z,40.80
2022-12-19T19:58:12.030Z,40.60
2022-12-19T20:01:40.761Z,45.70
2022-12-19T20:05:12.038Z,43.20
2022-12-19T20:08:41.046Z,35.50
2022-12-19T20:12:12.774Z,36.50
2022-12-19T20:15:49.934Z,34.50
2022-12-19T20:19:17.484Z,38.40
2022-12-19T20:22:44.215Z,33.50
2022-12-19T20:26:18.145Z,33.30
2022-12-19T20:29:46.103Z,34.60
2022-12-19T20:33:12.847Z,34.70
2022-12-19T20:36:46.555Z,34.00
2022-12-19T20:40:21.618Z,36.30
2022-12-19T20:43:48.856Z,37.60
2022-12-19T20:47:20.113Z,38.90
2022-12-19T20:50:48.387Z,40.40
2022-12-19T20:54:16.002Z,39.30
2022-12-19T20:57:43.268Z,36.80
2022-12-19T21:01:11.967Z,33.90
2022-12-19T21:04:40.125Z,42.00
2022-12-19T21:08:08.090Z,40.90
2022-12-19T21:11:36.781Z,41.30
2022-12-19T21:19:24.146Z,35.40
2022-12-19T21:22:54.114Z,35.60
2022-12-19T21:26:24.531Z,34.50
2022-12-19T21:29:54.987Z,34.40
2022-12-19T21:38:16.789Z,33.70
2022-12-19T21:41:43.212Z,34.50
2022-12-19T21:45:12.623Z,34.80
2022-12-19T21:48:41.772Z,33.60
2022-12-19T21:52:42.667Z,32.20
2022-12-19T21:56:26.813Z,31.90
2022-12-19T21:59:53.794Z,36.80
2022-12-19T22:03:21.176Z,35.10
2022-12-19T22:06:48.202Z,36.80
2022-12-19T22:10:15.029Z,38.50
2022-12-19T22:13:41.915Z,36.90
2022-12-19T22:17:09.846Z,35.70
2022-12-19T22:20:41.909Z,33.00
2022-12-19T22:24:11.274Z,32.40
2022-12-19T22:27:38.087Z,31.30
2022-12-19T22:31:06.248Z,31.30
2022-12-19T22:34:33.194Z,30.80
2022-12-19T22:38:00.520Z,28.50
2022-12-19T22:41:31.117Z,29.20
2022-12-19T22:44:59.560Z,29.00
2022-12-19T22:48:28.917Z,28.50
2022-12-19T22:52:02.282Z,28.60
2022-12-19T22:55:28.903Z,27.80
2022-12-19T22:59:00.146Z,27.40
2022-12-19T23:02:27.255Z,28.20
2022-12-19T23:05:54.843Z,27.50
2022-12-19T23:09:22.375Z,27.80
2022-12-19T23:12:49.804Z,28.20
2022-12-19T23:16:17.838Z,28.70
2022-12-19T23:19:47.952Z,28.70
2022-12-19T23:23:14.404Z,27.20
2022-12-19T23:26:42.010Z,27.30
2022-12-19T23:30:11.541Z,27.40
2022-12-19T23:33:40.963Z,27.70
2022-12-19T23:37:12.211Z,28.20
2022-12-19T23:40:39.817Z,27.40
2022-12-19T23:44:06.932Z,27.40
2022-12-19T23:47:33.222Z,30.10
2022-12-19T23:51:04.922Z,28.40
2022-12-19T23:54:34.939Z,30.40
2022-12-19T23:58:06.565Z,32.30
